Time;durP1;ratioP1;P1;durP2;ratioP2;P2;SDS_P1;SDS_P2;PMS_P1;PMS_P2;Temp;Humidity;BMP_temperature;BMP_pressure;BME280_temperature;BME280_humidity;BME280_pressure;Samples;Min_cycle;Max_cycle;Signal;HPM_P1;HPM_P2
2021/03/24 00:01:19;;;;;;;27.05;12.63;;;5.40;99.90;;;;;;6720837;88;20193;-77
2021/03/24 00:11:19;;;;;;;27.37;12.80;;;5.40;99.90;;;;;;6726129;88;20625;-74
2021/03/24 00:21:20;;;;;;;28.15;13.23;;;5.50;99.90;;;;;;6726820;88;20205;-75
2021/03/24 00:31:21;;;;;;;26.42;12.93;;;5.50;99.90;;;;;;6725704;88;20305;-75
2021/03/24 00:41:22;;;;;;;32.08;13.68;;;5.20;99.90;;;;;;6728042;88;20260;-75
2021/03/24 00:51:23;;;;;;;32.25;13.73;;;5.20;99.90;;;;;;6730966;88;20646;-76
2021/03/24 01:01:23;;;;;;;26.48;13.05;;;4.90;99.90;;;;;;6725183;88;20280;-77
2021/03/24 01:11:24;;;;;;;29.55;13.95;;;4.80;99.90;;;;;;6720904;88;20238;-76
2021/03/24 01:21:25;;;;;;;26.98;12.77;;;4.90;99.90;;;;;;6724375;88;20238;-76
2021/03/24 01:31:30;;;;;;;29.40;13.30;;;4.80;99.90;;;;;;6724447;88;20230;-76
2021/03/24 01:41:31;;;;;;;28.35;13.07;;;4.60;99.90;;;;;;6721553;88;20201;-76
2021/03/24 01:51:54;;;;;;;29.02;13.20;;;4.40;99.90;;;;;;6724342;88;20205;-76
2021/03/24 02:01:56;;;;;;;28.27;13.80;;;4.10;99.90;;;;;;6723891;88;20403;-76
2021/03/24 02:12:15;;;;;;;28.38;12.88;;;3.90;99.90;;;;;;6728226;88;20594;-75
2021/03/24 02:22:28;;;;;;;27.35;12.70;;;3.80;99.90;;;;;;6740453;88;20608;-75
2021/03/24 02:32:32;;;;;;;29.23;13.20;;;3.80;99.90;;;;;;6726070;88;20212;-76
2021/03/24 02:42:32;;;;;;;30.27;13.55;;;3.70;99.90;;;;;;6721101;88;20208;-76
2021/03/24 02:52:33;;;;;;;32.92;13.90;;;3.60;99.90;;;;;;6729598;88;20193;-76
2021/03/24 03:02:38;;;;;;;30.30;13.05;;;3.70;99.90;;;;;;6723695;88;20192;-76
2021/03/24 03:13:00;;;;;;;31.33;14.30;;;3.70;99.90;;;;;;6732631;88;20355;-77
2021/03/24 03:23:14;;;;;;;31.58;13.85;;;3.80;99.90;;;;;;6725239;88;20189;-76
2021/03/24 03:33:20;;;;;;;32.63;13.15;;;3.90;99.90;;;;;;6731300;88;20208;-76
2021/03/24 03:53:39;;;;;;;30.45;12.82;;;4.00;99.90;;;;;;6732493;88;20178;-74
2021/03/24 04:03:54;;;;;;;29.45;12.90;;;3.90;99.90;;;;;;6744484;88;20177;-75
2021/03/24 04:13:56;;;;;;;32.28;13.02;;;3.90;99.90;;;;;;6719143;88;20920;-76
2021/03/24 04:24:27;;;;;;;29.15;12.63;;;3.80;99.90;;;;;;6740640;88;20174;-74
2021/03/24 04:34:30;;;;;;;30.92;12.95;;;3.70;99.90;;;;;;6739171;88;21008;-78
2021/03/24 04:44:35;;;;;;;30.83;12.55;;;3.60;99.90;;;;;;6734231;88;20151;-78
2021/03/24 04:54:40;;;;;;;24.85;11.12;;;3.60;99.90;;;;;;6725429;88;20183;-76
2021/03/24 05:04:47;;;;;;;33.58;12.88;;;3.50;99.90;;;;;;6743861;88;20239;-75
2021/03/24 05:14:53;;;;;;;26.80;11.90;;;3.50;99.90;;;;;;6684560;89;20168;-76
2021/03/24 05:25:06;;;;;;;33.13;13.38;;;3.40;99.90;;;;;;6745756;88;20237;-76
2021/03/24 05:35:24;;;;;;;32.88;11.80;;;3.40;99.90;;;;;;6735081;88;20185;-80
2021/03/24 05:45:36;;;;;;;31.12;13.02;;;3.40;99.90;;;;;;6718793;88;20261;-80
2021/03/24 05:56:06;;;;;;;31.33;12.73;;;3.30;99.90;;;;;;6722421;88;20163;-79
2021/03/24 06:06:45;;;;;;;32.95;12.23;;;3.40;99.90;;;;;;6699892;88;20321;-79
2021/03/24 06:16:59;;;;;;;29.58;13.30;;;3.40;99.90;;;;;;6710194;88;20199;-80
2021/03/24 06:27:18;;;;;;;32.03;13.05;;;3.60;99.90;;;;;;6719873;88;20205;-80
2021/03/24 06:37:37;;;;;;;30.12;13.80;;;3.70;99.90;;;;;;6704003;88;20203;-80
2021/03/24 06:47:58;;;;;;;31.40;12.07;;;4.00;99.90;;;;;;6720186;88;20212;-80
2021/03/24 06:58:08;;;;;;;31.35;12.18;;;4.30;99.90;;;;;;6718742;88;20276;-79
2021/03/24 07:08:44;;;;;;;27.42;12.18;;;4.50;99.90;;;;;;6717358;88;20651;-79
2021/03/24 07:19:23;;;;;;;31.87;13.03;;;5.10;99.90;;;;;;6715789;88;22020;-81
2021/03/24 07:29:56;;;;;;;27.58;12.10;;;5.50;99.90;;;;;;6699737;88;20207;-80
2021/03/24 07:40:06;;;;;;;29.90;12.37;;;6.00;99.90;;;;;;6705629;88;20245;-81
2021/03/24 07:50:18;;;;;;;27.13;12.52;;;6.50;99.90;;;;;;6707829;88;20214;-80
2021/03/24 08:00:35;;;;;;;27.98;12.77;;;7.10;99.90;;;;;;6701199;88;20195;-81
2021/03/24 08:10:45;;;;;;;29.80;11.98;;;8.00;99.90;;;;;;6701777;88;20186;-81
2021/03/24 08:21:03;;;;;;;28.67;12.27;;;8.50;99.90;;;;;;6702103;88;20266;-80
2021/03/24 08:31:26;;;;;;;29.65;12.57;;;9.10;99.90;;;;;;6723482;88;20938;-79
2021/03/24 08:42:24;;;;;;;29.55;12.20;;;9.90;99.90;;;;;;6729958;88;20697;-80
2021/03/24 08:52:33;;;;;;;25.27;11.77;;;10.30;99.90;;;;;;6664143;88;20235;-79
2021/03/24 09:02:51;;;;;;;25.23;12.02;;;11.50;99.90;;;;;;6691150;88;20183;-79
2021/03/24 09:13:03;;;;;;;29.55;12.18;;;11.80;99.90;;;;;;6694396;88;20183;-80
2021/03/24 09:23:20;;;;;;;30.23;12.43;;;12.40;99.90;;;;;;6691158;88;20269;-80
2021/03/24 09:33:27;;;;;;;23.48;12.27;;;13.10;99.90;;;;;;6698784;88;20187;-79
2021/03/24 09:43:35;;;;;;;29.85;13.25;;;13.70;99.20;;;;;;6705502;77;20217;-73
2021/03/24 09:53:41;;;;;;;26.27;12.27;;;14.50;97.70;;;;;;6712620;88;20259;-74
2021/03/24 10:04:00;;;;;;;24.45;12.65;;;15.30;95.20;;;;;;6703331;88;20322;-74
2021/03/24 10:14:12;;;;;;;25.77;12.50;;;16.70;93.70;;;;;;6707466;88;20656;-75
2021/03/24 10:24:21;;;;;;;28.55;13.40;;;17.80;88.20;;;;;;6703405;88;20224;-74
2021/03/24 10:34:43;;;;;;;33.25;13.20;;;16.70;87.10;;;;;;6710021;88;20204;-75
2021/03/24 10:44:43;;;;;;;36.42;13.93;;;16.80;87.60;;;;;;6701312;88;20263;-75
2021/03/24 10:54:45;;;;;;;30.90;13.90;;;17.60;85.10;;;;;;6702894;88;20264;-74
2021/03/24 11:05:08;;;;;;;25.00;13.35;;;18.10;83.80;;;;;;6701084;88;20198;-75
2021/03/24 11:15:27;;;;;;;28.25;14.18;;;19.80;76.50;;;;;;6710209;88;20262;-76
2021/03/24 11:25:28;;;;;;;28.35;13.90;;;21.30;71.50;;;;;;6706767;88;20186;-76
2021/03/24 11:35:35;;;;;;;31.77;13.40;;;20.40;72.00;;;;;;6710459;88;20247;-75
2021/03/24 11:45:37;;;;;;;27.40;12.77;;;19.70;72.00;;;;;;6714123;88;20197;-76
2021/03/24 11:56:24;;;;;;;32.95;13.52;;;21.80;66.90;;;;;;6728897;88;20191;-79
2021/03/24 12:06:39;;;;;;;22.60;11.30;;;21.90;64.70;;;;;;6728805;88;20208;-75
2021/03/24 12:16:43;;;;;;;24.83;10.98;;;21.50;65.20;;;;;;6730084;88;20176;-77
2021/03/24 12:26:44;;;;;;;22.25;10.85;;;22.70;62.70;;;;;;6734902;88;20613;-77
2021/03/24 12:36:57;;;;;;;17.92;9.07;;;22.70;61.00;;;;;;6737185;88;20197;-78
2021/03/24 12:47:03;;;;;;;19.73;10.05;;;24.00;59.40;;;;;;6732712;88;20188;-78
2021/03/24 12:57:36;;;;;;;19.50;9.45;;;25.10;56.70;;;;;;6731989;88;20234;-77
2021/03/24 13:07:59;;;;;;;25.75;9.88;;;23.70;57.40;;;;;;6728982;88;20280;-77
2021/03/24 13:18:17;;;;;;;18.75;9.15;;;22.60;59.70;;;;;;6733064;88;20295;-78
2021/03/24 13:28:31;;;;;;;17.87;8.23;;;23.10;56.40;;;;;;6723450;88;20677;-77
2021/03/24 13:38:42;;;;;;;22.80;9.73;;;21.20;61.10;;;;;;6727565;88;20182;-77
2021/03/24 13:48:46;;;;;;;18.73;8.70;;;22.00;59.20;;;;;;6733075;88;20193;-78
2021/03/24 13:59:00;;;;;;;16.60;8.00;;;21.10;60.50;;;;;;6730954;88;20205;-78
2021/03/24 14:09:16;;;;;;;16.80;8.70;;;20.70;61.70;;;;;;6735051;88;20212;-77
2021/03/24 14:19:58;;;;;;;18.95;7.95;;;20.90;59.50;;;;;;6732533;88;20197;-77
2021/03/24 14:30:33;;;;;;;14.73;7.20;;;20.50;60.50;;;;;;6725993;88;20311;-77
2021/03/24 14:40:48;;;;;;;16.42;7.00;;;21.60;58.80;;;;;;6735859;88;20211;-76
2021/03/24 14:51:05;;;;;;;18.30;6.20;;;21.70;57.70;;;;;;6733078;88;20263;-77
2021/03/24 15:01:28;;;;;;;14.65;5.47;;;21.60;57.00;;;;;;6735188;88;20315;-78
2021/03/24 15:11:37;;;;;;;8.15;3.95;;;23.10;54.10;;;;;;6733996;88;20350;-77
2021/03/24 15:22:00;;;;;;;10.30;3.50;;;22.40;53.00;;;;;;6730206;88;20206;-76
2021/03/24 15:32:13;;;;;;;5.25;3.00;;;22.00;52.50;;;;;;6730193;88;20193;-78
2021/03/24 15:42:27;;;;;;;7.53;3.42;;;22.00;53.70;;;;;;6727481;88;20188;-76
2021/03/24 15:52:30;;;;;;;8.82;3.40;;;21.30;53.30;;;;;;6734661;88;20684;-76
2021/03/24 16:02:39;;;;;;;13.50;5.78;;;21.20;54.30;;;;;;6730872;88;20245;-77
2021/03/24 16:12:59;;;;;;;10.38;4.45;;;21.70;56.10;;;;;;6726938;88;20246;-76
2021/03/24 16:23:19;;;;;;;11.70;5.65;;;21.10;56.00;;;;;;6738616;88;20247;-76
2021/03/24 16:33:44;;;;;;;11.57;5.75;;;20.70;57.00;;;;;;6739467;88;20233;-77
2021/03/24 16:44:22;;;;;;;16.62;7.50;;;20.40;58.30;;;;;;6727881;88;20609;-76
2021/03/24 16:54:29;;;;;;;17.83;7.80;;;19.30;60.90;;;;;;6729390;88;20198;-76
2021/03/24 17:04:57;;;;;;;18.65;8.07;;;18.70;62.80;;;;;;6725323;88;20631;-76
2021/03/24 17:15:25;;;;;;;20.20;9.15;;;18.30;63.60;;;;;;6725509;88;20213;-76
2021/03/24 17:25:41;;;;;;;24.63;9.93;;;17.60;66.10;;;;;;6723538;88;20182;-75
2021/03/24 17:36:02;;;;;;;25.35;10.48;;;17.40;66.20;;;;;;6727567;88;20185;-76
2021/03/24 17:46:08;;;;;;;24.25;10.10;;;17.10;67.70;;;;;;6727246;88;20324;-76
2021/03/24 17:56:23;;;;;;;21.05;9.05;;;16.60;68.80;;;;;;6724839;88;20185;-76
2021/03/24 18:06:35;;;;;;;23.67;9.13;;;16.10;70.40;;;;;;6720029;88;20242;-75
2021/03/24 18:16:50;;;;;;;24.40;9.88;;;15.60;72.50;;;;;;6726672;88;20234;-77
2021/03/24 18:26:51;;;;;;;29.75;10.30;;;15.20;73.90;;;;;;6727581;88;20657;-76
2021/03/24 18:36:53;;;;;;;25.42;9.30;;;15.10;75.30;;;;;;6723765;88;20208;-76
2021/03/24 18:46:54;;;;;;;24.98;9.57;;;14.80;78.10;;;;;;6723778;88;20238;-76
2021/03/24 18:56:58;;;;;;;27.17;10.20;;;14.20;82.80;;;;;;6728636;88;20251;-77
2021/03/24 19:07:09;;;;;;;24.02;10.07;;;13.80;88.30;;;;;;6719925;88;20194;-77
2021/03/24 19:17:34;;;;;;;20.80;10.10;;;13.50;92.00;;;;;;6722003;88;20645;-76
2021/03/24 19:27:34;;;;;;;25.95;11.10;;;13.30;93.50;;;;;;6723943;88;20538;-75
2021/03/24 19:37:35;;;;;;;27.10;11.77;;;13.20;94.70;;;;;;6725950;88;21265;-76
2021/03/24 19:47:41;;;;;;;29.33;13.32;;;12.90;96.20;;;;;;6723979;88;20570;-76
2021/03/24 19:57:44;;;;;;;20.83;9.27;;;12.70;98.00;;;;;;6725853;88;20312;-76
2021/03/24 20:07:55;;;;;;;25.88;9.60;;;12.10;98.90;;;;;;6730624;88;20319;-75
2021/03/24 20:17:57;;;;;;;23.80;9.07;;;12.10;99.30;;;;;;6730808;88;20181;-76
2021/03/24 20:27:57;;;;;;;21.05;9.68;;;11.90;99.90;;;;;;6737169;88;20191;-76
2021/03/24 20:38:09;;;;;;;22.70;10.57;;;11.60;99.90;;;;;;6729690;88;20193;-76
2021/03/24 20:48:10;;;;;;;23.87;10.48;;;11.20;99.90;;;;;;6737477;88;20579;-76
2021/03/24 20:58:26;;;;;;;36.17;15.35;;;11.00;99.90;;;;;;6728966;88;20668;-76
2021/03/24 21:08:31;;;;;;;26.60;11.15;;;10.80;99.90;;;;;;6732582;88;20251;-76
2021/03/24 21:18:37;;;;;;;24.48;9.50;;;10.80;99.90;;;;;;6729945;88;20656;-76
2021/03/24 21:28:38;;;;;;;24.33;10.15;;;10.70;99.90;;;;;;6724199;88;20231;-76
2021/03/24 21:38:42;;;;;;;22.03;10.00;;;10.20;99.90;;;;;;6726486;88;20603;-75
2021/03/24 21:48:43;;;;;;;21.52;10.05;;;10.00;99.90;;;;;;6709390;77;20491;-79
2021/03/24 21:58:48;;;;;;;24.67;10.18;;;9.80;99.90;;;;;;6720645;88;20233;-77
2021/03/24 22:08:49;;;;;;;27.58;12.37;;;9.60;99.90;;;;;;6723652;88;20227;-79
2021/03/24 22:18:54;;;;;;;23.33;10.52;;;9.60;99.90;;;;;;6724336;88;20361;-78
2021/03/24 22:28:59;;;;;;;26.35;10.32;;;9.30;99.90;;;;;;6706777;88;20670;-79
2021/03/24 22:39:04;;;;;;;21.83;10.15;;;9.00;99.90;;;;;;6705908;88;20217;-79
2021/03/24 22:49:27;;;;;;;23.20;10.47;;;8.90;99.90;;;;;;6706556;88;20243;-78
2021/03/24 22:59:32;;;;;;;21.98;9.85;;;8.80;99.90;;;;;;6704673;88;20517;-78
2021/03/24 23:09:32;;;;;;;21.62;10.07;;;8.70;99.90;;;;;;6708753;88;20189;-78
2021/03/24 23:19:40;;;;;;;24.70;10.60;;;8.70;99.90;;;;;;6716417;88;20215;-80
2021/03/24 23:29:41;;;;;;;21.42;9.07;;;8.40;99.90;;;;;;6722668;88;20501;-79
2021/03/24 23:39:42;;;;;;;20.73;9.02;;;8.10;99.90;;;;;;6728087;88;20220;-80
2021/03/24 23:49:42;;;;;;;18.25;8.35;;;7.80;99.90;;;;;;6722318;88;20219;-79
2021/03/24 23:59:43;;;;;;;19.17;8.02;;;7.70;99.90;;;;;;6725854;88;20198;-80
